Time;durP1;ratioP1;P1;durP2;ratioP2;P2;SDS_P1;SDS_P2;PMS_P1;PMS_P2;Temp;Humidity;BMP_temperature;BMP_pressure;BME280_temperature;BME280_humidity;BME280_pressure;Samples;Min_cycle;Max_cycle;Signal;HPM_P1;HPM_P2
2023/01/28 00:01:12;;;;;;;55.25;34.22;;;2.60;1.00;;;;;;4963075;28;20117;-77
2023/01/28 00:03:40;;;;;;;57.33;36.22;;;2.50;1.00;;;;;;4962816;28;20101;-76
2023/01/28 00:06:10;;;;;;;63.28;37.40;;;2.60;99.90;;;;;;4961660;28;20098;-77
2023/01/28 00:08:37;;;;;;;60.38;36.78;;;2.60;99.90;;;;;;4962726;28;20485;-77
2023/01/28 00:11:07;;;;;;;56.95;36.38;;;2.60;99.90;;;;;;4960993;28;20407;-76
2023/01/28 00:13:35;;;;;;;57.35;34.95;;;2.60;81.50;;;;;;4962668;28;20046;-75
2023/01/28 00:16:04;;;;;;;55.63;33.80;;;2.60;1.00;;;;;;4966178;28;20129;-74
2023/01/28 00:18:33;;;;;;;57.35;34.70;;;2.50;1.00;;;;;;4962083;28;20039;-77
2023/01/28 00:21:02;;;;;;;59.85;35.53;;;2.40;1.00;;;;;;4961107;28;20039;-75
2023/01/28 00:23:32;;;;;;;57.53;36.72;;;2.40;1.00;;;;;;4961141;28;20074;-76
2023/01/28 00:25:59;;;;;;;60.30;37.28;;;2.30;1.00;;;;;;4960997;28;20499;-75
2023/01/28 00:28:27;;;;;;;59.40;37.72;;;2.20;1.00;;;;;;4974757;28;20571;-76
2023/01/28 00:30:55;;;;;;;54.92;37.15;;;2.20;1.00;;;;;;4974130;28;20082;-77
2023/01/28 00:33:23;;;;;;;59.47;37.20;;;2.20;1.00;;;;;;4965338;28;20138;-76
2023/01/28 00:35:59;;;;;;;56.53;38.38;;;2.00;1.00;;;;;;4959664;28;20146;-76
2023/01/28 00:38:27;;;;;;;55.38;37.20;;;2.00;99.90;;;;;;4961124;28;20483;-77
2023/01/28 00:40:55;;;;;;;53.22;36.85;;;1.90;99.90;;;;;;4961554;28;20046;-74
2023/01/28 00:43:24;;;;;;;52.65;37.05;;;1.90;1.00;;;;;;4961019;28;20560;-77
2023/01/28 00:45:51;;;;;;;56.47;37.80;;;1.90;1.00;;;;;;4960510;28;20106;-74
2023/01/28 00:48:19;;;;;;;52.85;37.35;;;1.90;1.00;;;;;;4962255;28;20126;-77
2023/01/28 00:50:46;;;;;;;51.33;33.97;;;1.90;99.90;;;;;;4984416;28;20062;-77
2023/01/28 00:53:16;;;;;;;51.40;34.70;;;1.90;1.00;;;;;;4962152;28;20122;-78
2023/01/28 00:55:45;;;;;;;51.80;34.42;;;1.90;64.20;;;;;;4984786;28;20399;-78
2023/01/28 00:58:13;;;;;;;49.13;33.85;;;1.90;3.10;;;;;;4984435;28;20051;-77
2023/01/28 01:00:41;;;;;;;53.63;36.00;;;1.80;1.00;;;;;;4959307;28;20503;-78
2023/01/28 01:03:08;;;;;;;53.85;35.95;;;1.90;1.00;;;;;;4961788;28;20074;-79
2023/01/28 01:05:36;;;;;;;52.65;36.00;;;1.90;1.00;;;;;;4968238;28;20055;-77
2023/01/28 01:08:03;;;;;;;52.20;33.60;;;2.00;30.20;;;;;;4960737;28;20211;-78
2023/01/28 01:10:33;;;;;;;51.40;34.45;;;2.10;25.50;;;;;;4960697;28;20134;-76
2023/01/28 01:13:01;;;;;;;49.00;32.80;;;2.10;99.90;;;;;;4975576;28;20138;-75
2023/01/28 01:15:28;;;;;;;48.22;33.50;;;2.20;99.90;;;;;;4967175;28;20518;-76
2023/01/28 01:17:57;;;;;;;56.60;35.00;;;2.30;99.90;;;;;;4973373;28;20050;-78
2023/01/28 01:20:29;;;;;;;58.85;36.85;;;2.40;99.90;;;;;;4961099;28;20130;-77
2023/01/28 01:22:57;;;;;;;63.40;40.00;;;2.40;99.90;;;;;;4976283;28;20050;-78
2023/01/28 01:25:26;;;;;;;66.50;41.72;;;2.40;99.90;;;;;;4960151;28;20530;-78
2023/01/28 01:27:55;;;;;;;72.53;43.17;;;2.40;1.00;;;;;;4976057;28;20063;-76
2023/01/28 01:30:26;;;;;;;74.00;42.70;;;2.40;99.90;;;;;;4974985;28;20070;-78
2023/01/28 01:32:53;;;;;;;76.43;44.20;;;2.30;8.00;;;;;;4983324;28;20047;-77
2023/01/28 01:35:21;;;;;;;78.05;47.08;;;2.30;99.90;;;;;;4960099;28;20105;-77
2023/01/28 01:37:48;;;;;;;80.22;46.17;;;2.20;92.80;;;;;;4959973;28;20051;-77
2023/01/28 01:40:17;;;;;;;85.57;45.75;;;2.30;99.90;;;;;;4961486;28;20086;-75
2023/01/28 01:42:45;;;;;;;92.95;46.08;;;2.30;1.00;;;;;;4965430;28;20122;-77
2023/01/28 01:45:15;;;;;;;90.00;44.35;;;2.30;1.00;;;;;;4969516;28;20047;-78
2023/01/28 01:47:46;;;;;;;94.15;44.85;;;2.30;1.00;;;;;;4968820;28;20090;-75
2023/01/28 01:50:24;;;;;;;91.47;42.55;;;2.30;1.00;;;;;;4967027;28;20043;-75
2023/01/28 01:52:56;;;;;;;88.75;43.33;;;2.20;1.00;;;;;;4962996;28;20129;-76
2023/01/28 01:55:27;;;;;;;92.05;43.03;;;2.20;1.00;;;;;;4962340;28;20114;-76
2023/01/28 01:57:58;;;;;;;94.45;44.63;;;2.10;1.00;;;;;;4961093;28;20043;-78
2023/01/28 02:00:27;;;;;;;88.90;41.85;;;2.20;1.00;;;;;;4967219;28;20077;-76
2023/01/28 02:02:55;;;;;;;79.45;37.97;;;2.20;13.80;;;;;;4971935;28;20039;-76
2023/01/28 02:05:23;;;;;;;79.60;38.13;;;2.20;99.90;;;;;;4973034;28;20125;-78
2023/01/28 02:08:19;;;;;;;71.00;35.13;;;2.20;99.90;;;;;;4958826;28;20047;-77
2023/01/28 02:10:46;;;;;;;64.07;32.90;;;2.20;99.90;;;;;;4959332;28;20058;-75
2023/01/28 02:13:15;;;;;;;65.75;32.90;;;2.20;99.90;;;;;;4961430;28;20047;-75
2023/01/28 02:15:46;;;;;;;56.70;32.00;;;2.30;99.90;;;;;;4963553;28;20085;-77
2023/01/28 02:18:13;;;;;;;59.15;31.48;;;2.30;99.90;;;;;;4987839;28;20487;-77
2023/01/28 02:21:05;;;;;;;56.35;30.52;;;2.30;99.90;;;;;;4961867;28;20047;-75
2023/01/28 02:23:55;;;;;;;50.78;30.27;;;2.30;99.90;;;;;;4964214;28;20097;-78
2023/01/28 02:26:56;;;;;;;54.70;31.73;;;2.30;6.10;;;;;;4962898;28;20062;-77
2023/01/28 02:29:30;;;;;;;53.67;30.27;;;2.30;1.00;;;;;;4963206;28;20097;-76
2023/01/28 02:32:05;;;;;;;53.00;30.45;;;2.40;1.00;;;;;;4962837;28;20047;-78
2023/01/28 02:34:39;;;;;;;46.63;28.90;;;2.40;1.00;;;;;;4977949;28;20075;-75
2023/01/28 02:37:14;;;;;;;48.92;29.98;;;2.40;1.00;;;;;;4963204;28;20288;-77
2023/01/28 02:39:44;;;;;;;46.83;29.20;;;2.40;1.00;;;;;;4962902;28;20467;-75
2023/01/28 02:42:18;;;;;;;45.03;27.15;;;2.40;1.00;;;;;;4962434;28;20070;-77
2023/01/28 02:44:47;;;;;;;45.53;28.65;;;2.40;99.90;;;;;;4962834;28;20047;-74
2023/01/28 02:50:05;;;;;;;50.47;29.88;;;2.40;1.00;;;;;;4985962;28;20058;-78
2023/01/28 02:55:39;;;;;;;49.70;30.10;;;2.50;1.00;;;;;;4959895;28;20049;-75
2023/01/28 02:58:16;;;;;;;46.55;30.63;;;2.50;56.50;;;;;;4962192;28;20058;-77
2023/01/28 03:00:53;;;;;;;43.88;28.55;;;2.50;99.90;;;;;;4963535;28;20038;-77
2023/01/28 03:03:27;;;;;;;46.05;29.80;;;2.50;1.00;;;;;;4964883;28;20043;-76
2023/01/28 03:06:05;;;;;;;44.67;29.50;;;2.50;99.90;;;;;;4962189;28;20062;-76
2023/01/28 03:36:48;;;;;;;50.83;32.95;;;2.50;1.00;;;;;;4961764;28;20057;-76
2023/01/28 03:39:51;;;;;;;53.85;34.35;;;2.50;99.90;;;;;;4958561;28;20047;-75
2023/01/28 03:42:19;;;;;;;49.60;33.67;;;2.60;1.00;;;;;;4978052;28;20050;-75
2023/01/28 03:44:56;;;;;;;49.80;34.20;;;2.60;99.90;;;;;;4961525;28;20437;-77
2023/01/28 03:47:26;;;;;;;50.10;34.75;;;2.60;1.00;;;;;;4961053;28;20499;-77
2023/01/28 03:49:58;;;;;;;50.50;34.53;;;2.60;99.90;;;;;;4984638;28;20045;-75
2023/01/28 03:52:29;;;;;;;49.25;33.53;;;2.60;99.90;;;;;;4961162;28;20141;-74
2023/01/28 03:55:13;;;;;;;51.47;33.88;;;2.60;1.00;;;;;;4978276;28;20055;-76
2023/01/28 03:57:43;;;;;;;48.10;32.78;;;2.60;1.00;;;;;;4960023;28;20135;-75
2023/01/28 04:00:16;;;;;;;53.22;34.83;;;2.60;1.00;;;;;;4976559;28;20083;-76
2023/01/28 04:02:43;;;;;;;54.08;34.05;;;2.60;1.00;;;;;;4962685;28;20043;-78
2023/01/28 04:05:19;;;;;;;52.28;32.50;;;2.60;1.00;;;;;;4961481;28;20074;-78
2023/01/28 04:07:51;;;;;;;53.78;31.83;;;2.60;99.90;;;;;;4961683;28;20047;-75
2023/01/28 04:10:42;;;;;;;53.20;33.00;;;2.60;1.00;;;;;;4960786;28;20054;-75
2023/01/28 04:13:19;;;;;;;66.00;36.72;;;2.60;1.00;;;;;;4961347;28;20055;-77
2023/01/28 04:15:48;;;;;;;63.88;41.42;;;2.70;1.00;;;;;;4960297;28;20047;-76
2023/01/28 04:18:16;;;;;;;59.17;38.40;;;2.70;99.90;;;;;;4961708;28;20047;-77
2023/01/28 04:20:48;;;;;;;58.70;37.42;;;2.70;99.90;;;;;;4975982;28;20051;-76
2023/01/28 04:23:17;;;;;;;58.35;37.17;;;2.70;1.00;;;;;;4984577;28;20047;-75
2023/01/28 04:25:45;;;;;;;59.13;36.90;;;2.70;99.90;;;;;;4959295;28;20051;-76
2023/01/28 04:28:13;;;;;;;59.47;36.58;;;2.80;99.90;;;;;;4960574;28;20058;-76
2023/01/28 04:30:40;;;;;;;55.88;34.67;;;2.80;1.00;;;;;;4960168;28;20121;-77
2023/01/28 04:33:22;;;;;;;57.63;33.75;;;2.80;55.00;;;;;;4968753;28;20552;-76
2023/01/28 04:36:02;;;;;;;53.65;33.10;;;2.80;1.00;;;;;;4960963;28;20434;-75
2023/01/28 04:38:45;;;;;;;51.83;32.58;;;2.80;1.00;;;;;;4960647;28;20560;-78
2023/01/28 04:41:47;;;;;;;56.90;35.72;;;2.80;1.00;;;;;;4959974;28;20051;-77
2023/01/28 04:44:24;;;;;;;60.58;35.65;;;2.80;1.00;;;;;;4959632;28;20039;-76
2023/01/28 04:47:02;;;;;;;63.22;37.38;;;2.80;1.00;;;;;;4960913;28;20051;-75
2023/01/28 04:49:49;;;;;;;59.03;33.63;;;2.70;1.00;;;;;;4959715;28;20491;-76
2023/01/28 04:52:41;;;;;;;61.28;36.25;;;2.70;1.00;;;;;;4960725;28;20555;-76
2023/01/28 04:55:18;;;;;;;56.63;36.03;;;2.70;1.00;;;;;;4960607;28;20054;-76
2023/01/28 04:57:48;;;;;;;64.65;39.33;;;2.70;1.00;;;;;;4960473;28;20059;-75
2023/01/28 05:00:16;;;;;;;58.72;37.38;;;2.70;1.00;;;;;;4983653;28;20384;-75
2023/01/28 05:02:44;;;;;;;60.45;36.78;;;2.70;1.00;;;;;;4959378;28;20141;-78
2023/01/28 05:05:11;;;;;;;60.42;33.78;;;2.70;1.00;;;;;;4963575;28;20048;-75
2023/01/28 05:07:54;;;;;;;67.00;37.63;;;2.70;99.90;;;;;;4960884;28;20050;-76
2023/01/28 05:10:22;;;;;;;65.85;37.38;;;2.70;99.90;;;;;;4960309;28;20043;-75
2023/01/28 05:12:50;;;;;;;57.22;35.47;;;2.70;35.20;;;;;;4959230;28;20126;-78
2023/01/28 05:15:19;;;;;;;57.88;32.72;;;2.70;1.00;;;;;;4983110;28;20117;-76
2023/01/28 05:17:48;;;;;;;56.10;33.42;;;2.70;1.00;;;;;;4921191;29;20324;-77
2023/01/28 05:20:18;;;;;;;70.43;38.20;;;2.70;1.00;;;;;;4920766;29;20103;-75
2023/01/28 05:22:48;;;;;;;67.57;39.08;;;2.60;1.00;;;;;;4921470;29;20051;-76
2023/01/28 05:25:30;;;;;;;61.80;38.03;;;2.50;1.00;;;;;;4921596;29;20497;-76
2023/01/28 05:27:58;;;;;;;61.80;37.55;;;2.50;1.00;;;;;;4922137;29;20039;-75
2023/01/28 05:30:26;;;;;;;61.40;36.08;;;2.50;1.00;;;;;;4921648;29;20122;-77
2023/01/28 05:32:56;;;;;;;57.25;35.10;;;2.50;1.00;;;;;;4945240;29;20134;-74
2023/01/28 05:35:24;;;;;;;58.97;35.72;;;2.50;1.00;;;;;;4927408;29;20048;-75
2023/01/28 05:37:52;;;;;;;62.13;35.55;;;2.50;1.00;;;;;;4925537;29;20048;-75
2023/01/28 05:40:20;;;;;;;57.22;35.60;;;2.40;1.00;;;;;;4937179;29;20513;-76
2023/01/28 05:42:49;;;;;;;55.10;36.40;;;2.50;1.00;;;;;;4921766;29;20076;-75
2023/01/28 05:45:33;;;;;;;56.10;35.97;;;2.50;1.00;;;;;;4920785;29;20419;-75
2023/01/28 05:48:20;;;;;;;60.65;36.30;;;2.50;1.00;;;;;;4922667;29;20307;-75
2023/01/28 05:51:17;;;;;;;55.70;35.80;;;2.60;1.00;;;;;;4922133;29;20398;-75
2023/01/28 05:53:52;;;;;;;63.15;39.10;;;2.50;1.00;;;;;;4921357;29;20056;-75
2023/01/28 05:56:22;;;;;;;60.42;39.33;;;2.50;1.00;;;;;;4920336;29;20052;-76
2023/01/28 05:58:51;;;;;;;59.67;39.15;;;2.60;1.00;;;;;;4922005;29;20047;-75
2023/01/28 06:01:19;;;;;;;55.67;35.42;;;2.60;1.00;;;;;;4944597;29;20135;-76
2023/01/28 06:03:51;;;;;;;54.35;36.20;;;2.60;99.90;;;;;;4921779;29;20048;-75
2023/01/28 06:06:19;;;;;;;54.47;35.28;;;2.60;99.90;;;;;;4920526;29;20048;-75
2023/01/28 06:08:47;;;;;;;58.17;37.00;;;2.60;99.90;;;;;;4921902;29;20048;-76
2023/01/28 06:11:22;;;;;;;58.20;35.67;;;2.60;99.90;;;;;;4920153;29;20040;-77
2023/01/28 06:13:52;;;;;;;56.58;35.38;;;2.60;99.90;;;;;;4920900;29;20052;-77
2023/01/28 06:16:42;;;;;;;59.47;37.88;;;2.60;1.00;;;;;;4958019;28;20054;-75
2023/01/28 06:19:27;;;;;;;59.20;37.53;;;2.60;99.90;;;;;;4959070;28;20496;-77
2023/01/28 06:21:54;;;;;;;54.78;34.67;;;2.50;99.90;;;;;;4957747;28;20097;-76
2023/01/28 06:24:23;;;;;;;59.05;35.75;;;2.50;99.90;;;;;;4958996;28;20053;-76
2023/01/28 06:26:50;;;;;;;57.83;36.88;;;2.60;99.90;;;;;;4960413;28;20049;-76
2023/01/28 06:29:19;;;;;;;60.90;36.47;;;2.60;99.90;;;;;;4958816;28;20043;-78
2023/01/28 06:31:47;;;;;;;59.92;36.45;;;2.70;99.90;;;;;;4956818;28;20146;-76
2023/01/28 06:34:14;;;;;;;60.85;34.40;;;2.80;99.90;;;;;;4960388;28;20035;-76
2023/01/28 06:36:42;;;;;;;64.72;35.80;;;2.80;99.90;;;;;;4962174;28;20130;-77
2023/01/28 06:39:09;;;;;;;64.40;35.75;;;2.80;1.00;;;;;;4959361;28;20623;-75
2023/01/28 06:41:37;;;;;;;59.60;35.22;;;2.90;1.00;;;;;;4959331;28;20047;-78
2023/01/28 06:44:04;;;;;;;60.47;34.15;;;2.80;1.00;;;;;;4975308;28;20337;-74
2023/01/28 06:46:34;;;;;;;64.82;37.97;;;2.80;1.00;;;;;;4960129;28;20126;-75
2023/01/28 06:49:01;;;;;;;62.55;36.28;;;2.70;1.00;;;;;;4961931;28;20074;-75
2023/01/28 06:51:29;;;;;;;69.68;38.05;;;2.70;13.10;;;;;;4960610;28;20071;-76
2023/01/28 06:53:56;;;;;;;67.70;38.60;;;2.70;99.90;;;;;;4961894;28;20118;-75
2023/01/28 06:56:23;;;;;;;69.93;38.65;;;2.70;99.90;;;;;;4976352;28;20047;-76
2023/01/28 06:58:51;;;;;;;64.15;36.65;;;2.70;99.90;;;;;;4963070;28;20035;-76
2023/01/28 07:01:19;;;;;;;62.65;36.45;;;2.70;99.90;;;;;;4966390;28;20054;-75
2023/01/28 07:03:48;;;;;;;69.68;38.10;;;2.80;1.00;;;;;;4963704;28;20055;-75
2023/01/28 07:06:15;;;;;;;65.47;36.95;;;2.70;99.90;;;;;;4963789;28;20550;-76
2023/01/28 07:08:43;;;;;;;67.60;38.90;;;2.70;99.90;;;;;;4964298;28;20047;-76
2023/01/28 07:11:10;;;;;;;64.72;37.00;;;2.70;1.00;;;;;;4966195;28;20047;-76
2023/01/28 07:13:38;;;;;;;67.65;38.05;;;2.80;1.00;;;;;;4964068;28;20054;-76
2023/01/28 07:16:06;;;;;;;65.00;38.08;;;2.80;1.00;;;;;;4962399;28;20059;-76
2023/01/28 07:18:34;;;;;;;65.47;37.95;;;2.90;1.00;;;;;;4963225;28;20506;-74
2023/01/28 07:21:03;;;;;;;62.40;37.58;;;3.00;1.00;;;;;;4964654;28;20043;-74
2023/01/28 07:23:30;;;;;;;64.45;38.22;;;2.90;99.90;;;;;;4966177;28;20117;-77
2023/01/28 07:26:01;;;;;;;66.68;36.65;;;2.90;1.00;;;;;;4966595;28;20038;-76
2023/01/28 07:28:29;;;;;;;62.97;35.63;;;2.90;1.00;;;;;;4964494;28;20067;-78
2023/01/28 07:30:57;;;;;;;60.65;34.40;;;2.90;1.00;;;;;;4967242;28;20042;-76
2023/01/28 07:33:25;;;;;;;61.90;35.40;;;2.90;1.00;;;;;;4967483;28;20050;-76
2023/01/28 07:35:52;;;;;;;65.13;37.50;;;3.00;91.60;;;;;;4966146;28;20046;-74
2023/01/28 07:38:21;;;;;;;60.80;34.58;;;2.90;1.00;;;;;;4971127;28;20182;-75
2023/01/28 07:40:49;;;;;;;62.08;35.35;;;3.00;1.00;;;;;;4963779;28;20047;-75
2023/01/28 07:43:16;;;;;;;62.47;36.75;;;3.00;1.00;;;;;;4963040;28;20133;-77
2023/01/28 07:45:43;;;;;;;62.55;36.80;;;3.00;1.00;;;;;;4964686;28;20518;-77
2023/01/28 07:48:13;;;;;;;64.03;36.85;;;2.90;1.00;;;;;;4962869;28;20050;-77
2023/01/28 07:50:41;;;;;;;68.22;37.60;;;2.90;1.00;;;;;;4961383;28;20526;-77
2023/01/28 07:53:10;;;;;;;65.25;39.28;;;2.90;1.00;;;;;;4962837;28;20054;-74
2023/01/28 07:55:39;;;;;;;70.43;41.50;;;3.00;1.00;;;;;;4962437;28;20435;-74
2023/01/28 07:58:08;;;;;;;70.82;40.70;;;3.10;1.00;;;;;;4965437;28;20127;-75
2023/01/28 08:00:37;;;;;;;69.97;41.05;;;3.10;1.00;;;;;;4966085;28;20123;-76
2023/01/28 08:03:06;;;;;;;71.30;41.60;;;3.10;25.60;;;;;;4965923;28;20079;-75
2023/01/28 08:05:40;;;;;;;72.10;42.22;;;3.20;1.00;;;;;;4965818;28;20564;-77
2023/01/28 08:08:08;;;;;;;78.80;44.17;;;3.20;1.00;;;;;;4967823;28;20090;-77
2023/01/28 08:10:37;;;;;;;74.13;43.13;;;3.20;1.00;;;;;;4963705;28;20070;-76
2023/01/28 08:13:06;;;;;;;63.05;36.58;;;3.20;1.00;;;;;;4964252;28;20158;-77
2023/01/28 08:15:35;;;;;;;63.97;37.85;;;3.30;1.00;;;;;;4964226;28;20050;-75
2023/01/28 08:18:04;;;;;;;67.07;35.95;;;3.30;1.00;;;;;;4964998;28;20045;-74
2023/01/28 08:20:31;;;;;;;65.63;37.78;;;3.40;1.00;;;;;;4963231;28;20051;-77
2023/01/28 08:23:07;;;;;;;67.90;37.38;;;3.30;1.00;;;;;;4967060;28;20101;-76
2023/01/28 08:25:34;;;;;;;63.05;37.60;;;3.20;1.00;;;;;;4967223;28;20146;-77
2023/01/28 08:28:02;;;;;;;67.32;38.28;;;3.30;1.00;;;;;;4963508;28;20069;-75
2023/01/28 08:30:31;;;;;;;66.28;39.75;;;3.20;1.00;;;;;;4963959;28;20488;-75
2023/01/28 08:32:58;;;;;;;68.60;41.00;;;3.20;1.00;;;;;;4965282;28;20042;-75
2023/01/28 08:35:27;;;;;;;71.22;41.03;;;3.30;1.00;;;;;;4978023;28;20058;-75
2023/01/28 08:37:55;;;;;;;77.18;44.80;;;3.40;1.00;;;;;;4962946;28;20479;-77
2023/01/28 08:40:22;;;;;;;74.38;42.25;;;3.50;1.00;;;;;;4964141;28;20064;-77
2023/01/28 08:42:50;;;;;;;68.22;40.50;;;3.50;1.00;;;;;;4963039;28;20050;-76
2023/01/28 08:45:18;;;;;;;74.88;45.17;;;3.60;1.00;;;;;;4967547;28;20046;-76
2023/01/28 08:47:51;;;;;;;79.78;46.17;;;3.70;1.00;;;;;;4990173;28;20101;-76
2023/01/28 08:50:20;;;;;;;77.20;46.45;;;3.70;1.00;;;;;;4964483;28;20066;-75
2023/01/28 08:52:48;;;;;;;81.13;48.38;;;3.70;1.00;;;;;;4966516;28;20157;-77
2023/01/28 08:55:17;;;;;;;84.68;48.65;;;3.70;1.00;;;;;;4976703;28;20038;-75
2023/01/28 08:57:45;;;;;;;79.38;47.45;;;3.80;1.00;;;;;;4971925;28;20039;-74
2023/01/28 09:00:14;;;;;;;83.10;49.78;;;3.80;1.00;;;;;;4997235;28;20073;-77
2023/01/28 09:02:41;;;;;;;78.68;46.65;;;3.80;1.00;;;;;;4969549;28;20038;-75
2023/01/28 09:05:10;;;;;;;79.13;48.70;;;3.80;99.90;;;;;;4969698;28;20464;-76
2023/01/28 09:07:38;;;;;;;84.45;49.30;;;3.90;99.90;;;;;;4971901;28;20070;-76
2023/01/28 09:10:07;;;;;;;76.47;47.35;;;3.90;99.90;;;;;;4970396;28;20047;-77
2023/01/28 09:12:34;;;;;;;90.18;52.80;;;4.00;99.90;;;;;;4970609;28;20177;-76
2023/01/28 09:15:01;;;;;;;91.18;52.92;;;3.80;99.90;;;;;;4971054;28;20129;-75
2023/01/28 09:17:29;;;;;;;85.60;51.92;;;3.70;1.00;;;;;;4971546;28;20098;-77
2023/01/28 09:19:56;;;;;;;85.95;53.13;;;3.70;1.00;;;;;;4964009;28;20100;-76
2023/01/28 09:22:25;;;;;;;82.35;48.80;;;3.70;1.00;;;;;;4964418;28;20050;-75
2023/01/28 09:24:53;;;;;;;80.20;49.20;;;3.70;1.00;;;;;;4969764;28;20043;-75
2023/01/28 09:27:20;;;;;;;88.20;51.90;;;3.70;99.90;;;;;;4967359;28;20071;-75
2023/01/28 09:29:48;;;;;;;93.38;56.10;;;3.70;1.00;;;;;;4970241;28;20043;-77
2023/01/28 09:32:15;;;;;;;83.07;48.95;;;3.80;1.00;;;;;;4974807;28;20035;-77
2023/01/28 09:34:43;;;;;;;84.72;50.05;;;3.80;1.00;;;;;;4972707;28;20065;-77
2023/01/28 09:37:11;;;;;;;81.10;50.97;;;3.90;1.00;;;;;;4967104;28;20043;-75
2023/01/28 09:39:40;;;;;;;77.47;47.08;;;3.90;99.90;;;;;;4965220;28;20042;-76
2023/01/28 09:42:43;;;;;;;79.57;48.45;;;3.90;99.90;;;;;;4962825;28;20150;-75
2023/01/28 09:45:17;;;;;;;78.97;48.45;;;3.80;99.90;;;;;;4962969;28;20089;-76
2023/01/28 09:47:49;;;;;;;80.93;53.33;;;3.80;99.90;;;;;;4962675;28;20066;-75
2023/01/28 09:50:23;;;;;;;86.72;56.13;;;3.90;1.00;;;;;;4963728;28;20042;-76
2023/01/28 09:52:55;;;;;;;84.45;56.65;;;3.90;99.90;;;;;;4963931;28;20043;-75
2023/01/28 09:55:32;;;;;;;97.35;61.70;;;3.80;99.90;;;;;;4964727;28;20121;-76
2023/01/28 09:58:00;;;;;;;77.13;51.40;;;3.80;99.90;;;;;;4966104;28;20031;-76
2023/01/28 10:00:34;;;;;;;73.50;48.28;;;3.80;99.90;;;;;;4962732;28;20042;-76
2023/01/28 10:03:24;;;;;;;85.90;55.80;;;3.80;99.90;;;;;;4963203;28;20039;-77
2023/01/28 10:06:01;;;;;;;87.22;55.55;;;3.90;1.00;;;;;;4954188;28;20153;-76
2023/01/28 10:08:43;;;;;;;83.32;55.63;;;3.80;99.90;;;;;;4961337;28;20054;-76
2023/01/28 10:11:20;;;;;;;88.57;55.80;;;3.80;99.90;;;;;;4959789;28;20046;-77
2023/01/28 10:13:53;;;;;;;87.80;55.38;;;3.80;1.00;;;;;;4983784;28;20491;-76
2023/01/28 10:16:28;;;;;;;82.55;54.03;;;3.80;1.00;;;;;;4959539;28;20439;-75
2023/01/28 10:18:58;;;;;;;83.63;51.47;;;3.90;1.00;;;;;;4960993;28;20043;-76
2023/01/28 10:21:28;;;;;;;78.57;48.05;;;3.90;1.00;;;;;;4959885;28;20059;-75
2023/01/28 10:24:03;;;;;;;75.55;45.33;;;3.90;99.90;;;;;;4962231;28;20414;-75
2023/01/28 10:26:36;;;;;;;77.43;47.75;;;3.90;1.00;;;;;;4960815;28;20043;-77
2023/01/28 10:29:11;;;;;;;79.90;47.50;;;3.80;1.00;;;;;;4959462;28;20043;-75
2023/01/28 10:31:47;;;;;;;75.88;46.95;;;3.80;99.90;;;;;;4965798;28;20106;-75
2023/01/28 10:34:14;;;;;;;;;;;3.90;1.00;;;;;;4973909;28;20400;-77
2023/01/28 10:36:43;;;;;;;84.80;47.42;;;3.90;99.90;;;;;;4966945;28;19929;-75
2023/01/28 10:39:13;;;;;;;76.72;48.38;;;3.80;99.90;;;;;;4964891;28;20059;-77
2023/01/28 10:41:42;;;;;;;83.25;49.03;;;3.80;99.90;;;;;;4963110;28;20252;-76
2023/01/28 10:44:17;;;;;;;76.60;46.28;;;3.80;99.90;;;;;;4964381;28;20042;-78
2023/01/28 10:46:46;;;;;;;76.38;46.35;;;3.80;1.00;;;;;;4963099;28;20495;-77
2023/01/28 10:49:16;;;;;;;79.18;48.13;;;3.80;1.00;;;;;;4963919;28;20051;-75
2023/01/28 10:51:44;;;;;;;78.45;45.97;;;3.90;1.00;;;;;;4963178;28;20584;-75
2023/01/28 10:54:23;;;;;;;78.45;47.78;;;3.90;99.90;;;;;;4963103;28;20086;-76
2023/01/28 10:56:56;;;;;;;81.68;48.13;;;4.00;99.90;;;;;;4962553;28;20051;-75
2023/01/28 10:59:27;;;;;;;85.95;49.75;;;4.00;99.90;;;;;;4965888;28;20589;-76
2023/01/28 11:01:57;;;;;;;81.35;49.60;;;4.00;99.90;;;;;;4964744;28;20046;-77
2023/01/28 11:04:26;;;;;;;82.70;48.80;;;4.10;99.90;;;;;;4965492;28;20039;-77
2023/01/28 11:06:56;;;;;;;80.65;49.60;;;4.10;99.90;;;;;;4967255;28;20119;-75
2023/01/28 11:09:26;;;;;;;81.65;48.40;;;4.10;99.90;;;;;;4964056;28;20039;-76
2023/01/28 11:11:55;;;;;;;79.63;48.55;;;4.00;99.90;;;;;;4964667;28;20122;-77
2023/01/28 11:14:25;;;;;;;73.28;45.45;;;3.90;99.90;;;;;;4965135;28;20043;-75
2023/01/28 11:16:54;;;;;;;75.15;46.42;;;3.90;1.00;;;;;;4966466;28;20100;-76
2023/01/28 11:19:27;;;;;;;73.35;44.50;;;4.00;1.00;;;;;;4971324;28;20047;-77
2023/01/28 11:21:57;;;;;;;74.43;44.58;;;4.10;99.90;;;;;;4972274;28;20511;-76
2023/01/28 11:24:28;;;;;;;73.97;44.55;;;4.10;99.90;;;;;;4972097;28;20059;-76
2023/01/28 11:26:59;;;;;;;72.15;45.42;;;4.10;99.90;;;;;;4968158;28;20483;-77
2023/01/28 11:29:30;;;;;;;78.35;45.97;;;4.00;99.90;;;;;;4965742;28;20035;-76
2023/01/28 11:31:59;;;;;;;70.80;43.75;;;4.00;99.90;;;;;;4962161;28;20501;-77
2023/01/28 11:34:29;;;;;;;70.05;43.67;;;4.00;99.90;;;;;;4962926;28;20510;-76
2023/01/28 11:37:04;;;;;;;68.38;44.47;;;4.10;99.90;;;;;;4961857;28;20051;-76
2023/01/28 11:39:32;;;;;;;66.25;41.72;;;4.10;99.90;;;;;;4961441;28;20081;-75
2023/01/28 11:42:22;;;;;;;73.63;42.03;;;4.10;99.90;;;;;;4962028;28;20051;-77
2023/01/28 11:44:50;;;;;;;67.07;42.28;;;4.20;99.90;;;;;;4958477;28;20059;-76
2023/01/28 11:47:30;;;;;;;67.10;43.45;;;4.20;99.90;;;;;;4961359;28;20078;-76
2023/01/28 11:50:13;;;;;;;84.53;49.35;;;4.30;99.90;;;;;;4961835;28;20517;-75
2023/01/28 11:52:54;;;;;;;75.93;45.67;;;4.30;99.90;;;;;;4962128;28;20487;-76
2023/01/28 11:55:37;;;;;;;73.38;44.33;;;4.40;99.90;;;;;;4963180;28;20039;-77
2023/01/28 11:58:20;;;;;;;69.65;45.25;;;4.40;99.90;;;;;;4961083;28;20046;-77
2023/01/28 12:00:56;;;;;;;74.22;44.28;;;4.50;99.90;;;;;;4964261;28;20070;-76
2023/01/28 12:03:43;;;;;;;73.78;46.13;;;4.50;99.90;;;;;;4962588;28;20054;-77
2023/01/28 12:06:28;;;;;;;72.35;44.90;;;4.50;72.30;;;;;;4971656;28;20047;-76
2023/01/28 12:09:06;;;;;;;69.07;44.42;;;4.40;1.00;;;;;;4965932;28;20048;-74
2023/01/28 12:14:37;;;;;;;70.55;42.95;;;4.40;1.00;;;;;;4962544;28;20066;-77
2023/01/28 12:17:19;;;;;;;67.43;42.20;;;4.40;1.00;;;;;;4962271;28;20610;-75
2023/01/28 12:19:58;;;;;;;72.15;44.28;;;4.40;1.00;;;;;;4961696;28;20067;-76
2023/01/28 12:23:02;;;;;;;69.20;43.50;;;4.40;1.00;;;;;;4961972;28;20054;-76
2023/01/28 12:25:39;;;;;;;57.42;36.65;;;4.40;1.00;;;;;;4956117;28;20055;-75
2023/01/28 12:28:15;;;;;;;52.05;32.80;;;4.40;1.00;;;;;;4962592;28;20035;-76
2023/01/28 12:30:58;;;;;;;47.33;31.25;;;4.30;1.00;;;;;;4960588;28;20045;-76
2023/01/28 12:33:51;;;;;;;47.55;30.40;;;4.30;1.00;;;;;;4962424;28;20385;-76
2023/01/28 12:36:33;;;;;;;48.47;29.05;;;4.20;1.00;;;;;;4961990;28;20135;-77
2023/01/28 12:39:12;;;;;;;44.97;29.50;;;4.20;1.00;;;;;;4961363;28;20122;-76
2023/01/28 12:41:44;;;;;;;48.92;30.33;;;4.20;1.00;;;;;;4961303;28;20130;-77
2023/01/28 12:44:16;;;;;;;48.45;30.77;;;4.20;1.00;;;;;;4961262;28;20045;-74
2023/01/28 12:46:51;;;;;;;47.42;29.73;;;4.30;1.00;;;;;;4960829;28;20142;-77
2023/01/28 12:49:25;;;;;;;42.65;28.13;;;4.30;1.00;;;;;;4959171;28;20055;-75
2023/01/28 12:52:00;;;;;;;45.00;27.90;;;4.20;1.00;;;;;;4961246;28;20047;-75
2023/01/28 12:54:34;;;;;;;49.90;30.90;;;4.10;1.00;;;;;;4985548;28;20047;-76
2023/01/28 12:57:01;;;;;;;44.38;29.52;;;4.10;1.00;;;;;;4966144;28;20039;-77
2023/01/28 12:59:33;;;;;;;45.53;31.40;;;4.20;1.00;;;;;;4966514;28;20121;-76
2023/01/28 13:02:21;;;;;;;44.85;30.85;;;4.30;1.00;;;;;;4963365;28;20038;-78
2023/01/28 13:04:54;;;;;;;39.15;28.30;;;4.40;1.00;;;;;;4965447;28;20494;-77
2023/01/28 13:07:26;;;;;;;45.70;30.17;;;4.40;1.00;;;;;;4976452;28;20059;-76
2023/01/28 13:10:03;;;;;;;46.78;30.90;;;4.40;1.00;;;;;;4959779;28;20518;-76
2023/01/28 13:12:32;;;;;;;47.70;30.52;;;4.30;1.00;;;;;;4959941;28;20043;-77
2023/01/28 13:15:00;;;;;;;47.92;30.30;;;4.40;1.00;;;;;;4963152;28;20043;-77
2023/01/28 13:17:31;;;;;;;49.75;32.22;;;4.40;1.00;;;;;;4960421;28;20054;-76
2023/01/28 13:19:59;;;;;;;48.83;30.40;;;4.30;1.00;;;;;;4960023;28;20488;-76
2023/01/28 13:22:30;;;;;;;48.13;29.67;;;4.30;1.00;;;;;;4959112;28;20490;-77
2023/01/28 13:24:59;;;;;;;49.05;29.15;;;4.30;1.00;;;;;;4960973;28;20504;-77
2023/01/28 13:27:28;;;;;;;92.10;46.13;;;4.20;1.00;;;;;;4960423;28;20045;-77
2023/01/28 13:30:05;;;;;;;56.67;32.78;;;4.30;1.00;;;;;;4960301;28;20049;-77
2023/01/28 13:32:36;;;;;;;64.10;36.85;;;4.40;1.00;;;;;;4962526;28;20043;-77
2023/01/28 13:35:06;;;;;;;53.97;31.52;;;4.30;1.00;;;;;;4961282;28;20554;-75
2023/01/28 13:37:38;;;;;;;47.42;28.67;;;4.10;1.00;;;;;;4961934;28;20053;-77
2023/01/28 13:40:24;;;;;;;48.63;29.90;;;4.10;1.00;;;;;;4959717;28;20062;-77
2023/01/28 13:42:59;;;;;;;51.53;30.60;;;4.10;1.00;;;;;;4961744;28;20559;-76
2023/01/28 13:45:27;;;;;;;49.47;31.45;;;4.20;1.00;;;;;;4961909;28;20046;-78